Main page
Satellite images 10-day forecastsClimateMarine weather Cyclones Lightning AirportsFAQ Newsletter About
Weather : Europe Africa North America South America Asia Australia-Oceania Others
Languages Contact

Alpine, Texas, United States

Alpine-Casparis Municipal Airport

latitude: 30-23-03N, longitude: 103-41-00W, elevation: 1376 m


METAR: KE38 041115Z AUTO 24003KT 10SM CLR 21/14 A3015 RMK AO2 T02060138
TAF: missing

Time: 06:42 (11:42 UTC)

Current weather observation

The report was made 27 minutes ago, at 11:15 UTC
Wind 3 kt from the West/Southwest
Temperature 21°C
Humidity 64%
Pressure 1021 hPa
Visibility: 16.1 km
Clear sky

Change units
The information on this site is subject to a disclaimer
Weather : Europe Africa North America South America Asia Australia-Oceania Others
Satellite images 10-day forecastsClimateMarine weather Cyclones Lightning AirportsFAQ Languages Contact Newsletter About